createdAt,value
2022-12-31T00:02:50.596Z,34.58
2022-12-31T00:05:53.222Z,34.60
2022-12-31T00:08:59.117Z,36.92
2022-12-31T00:12:01.775Z,33.67
2022-12-31T00:15:04.468Z,29.98
2022-12-31T00:18:07.634Z,31.45
2022-12-31T00:21:10.695Z,32.63
2022-12-31T00:24:13.152Z,32.80
2022-12-31T00:27:15.550Z,34.15
2022-12-31T00:30:18.076Z,33.10
2022-12-31T00:33:20.426Z,31.02
2022-12-31T00:36:29.127Z,32.67
2022-12-31T00:39:31.614Z,30.98
2022-12-31T00:42:33.934Z,32.70
2022-12-31T00:45:36.330Z,35.88
2022-12-31T00:48:39.176Z,34.30
2022-12-31T00:51:41.649Z,31.80
2022-12-31T00:54:44.316Z,32.95
2022-12-31T00:57:46.694Z,31.75
2022-12-31T01:00:49.120Z,34.17
2022-12-31T01:03:55.184Z,32.08
2022-12-31T01:06:57.555Z,32.72
2022-12-31T01:09:59.975Z,32.13
2022-12-31T01:13:02.468Z,31.70
2022-12-31T01:16:12.740Z,34.70
2022-12-31T01:19:18.432Z,31.83
2022-12-31T01:22:20.824Z,33.17
2022-12-31T01:25:23.241Z,35.00
2022-12-31T01:28:25.757Z,34.08
2022-12-31T01:31:28.756Z,34.60
2022-12-31T01:34:31.141Z,32.05
2022-12-31T01:37:33.514Z,29.65
2022-12-31T01:40:40.394Z,30.38
2022-12-31T01:43:44.439Z,28.58
2022-12-31T01:46:49.584Z,30.10
2022-12-31T01:50:02.302Z,30.35
2022-12-31T01:53:06.898Z,29.60
2022-12-31T01:56:09.812Z,29.30
2022-12-31T01:59:14.639Z,28.20
2022-12-31T02:02:17.290Z,30.80
2022-12-31T02:05:25.302Z,29.33
2022-12-31T02:08:27.751Z,29.85
2022-12-31T02:11:36.578Z,30.13
2022-12-31T02:14:45.753Z,28.85
2022-12-31T02:18:22.772Z,28.67
2022-12-31T02:21:43.468Z,28.80
2022-12-31T02:24:48.553Z,29.40
2022-12-31T02:28:23.295Z,28.65
2022-12-31T02:31:37.175Z,29.70
2022-12-31T02:34:48.904Z,31.20
2022-12-31T02:37:56.987Z,29.77
2022-12-31T02:41:00.341Z,29.77
2022-12-31T02:44:19.666Z,32.03
2022-12-31T02:47:27.942Z,31.90
2022-12-31T02:50:55.555Z,32.30
2022-12-31T02:54:36.802Z,32.05
2022-12-31T02:57:47.401Z,29.47
2022-12-31T03:01:13.387Z,28.75
2022-12-31T03:04:32.142Z,25.63
2022-12-31T03:07:35.021Z,25.93
2022-12-31T03:10:37.734Z,25.48
2022-12-31T03:13:40.062Z,25.85
2022-12-31T03:16:42.417Z,25.73
2022-12-31T03:20:03.116Z,25.98
2022-12-31T03:23:08.788Z,26.23
2022-12-31T03:26:12.672Z,23.42
2022-12-31T03:29:15.095Z,24.07
2022-12-31T03:32:17.458Z,28.83
2022-12-31T03:35:21.694Z,27.23
2022-12-31T03:38:24.759Z,24.77
2022-12-31T03:41:27.513Z,26.67
2022-12-31T03:44:29.917Z,25.95
2022-12-31T03:47:32.624Z,22.85
2022-12-31T03:50:37.610Z,25.90
2022-12-31T03:53:39.957Z,27.88
2022-12-31T03:56:42.786Z,28.95
2022-12-31T03:59:45.119Z,28.10
2022-12-31T04:02:48.458Z,28.38
2022-12-31T04:05:55.330Z,28.48
2022-12-31T04:08:57.753Z,27.63
2022-12-31T04:12:00.201Z,24.48
2022-12-31T04:15:05.790Z,28.88
2022-12-31T04:18:08.250Z,25.10
2022-12-31T04:21:10.935Z,22.50
2022-12-31T04:24:13.441Z,24.25
2022-12-31T04:27:15.811Z,26.45
2022-12-31T04:30:18.307Z,24.17
2022-12-31T04:33:20.629Z,30.48
2022-12-31T04:36:22.976Z,23.83
2022-12-31T04:39:26.180Z,24.50
2022-12-31T04:42:28.582Z,21.85
2022-12-31T04:45:31.139Z,23.30
2022-12-31T04:48:34.916Z,22.80
2022-12-31T04:51:37.732Z,20.38
2022-12-31T04:54:40.135Z,19.65
2022-12-31T04:57:42.483Z,21.23
2022-12-31T05:00:46.198Z,20.03
2022-12-31T05:03:49.346Z,21.40
2022-12-31T05:06:51.777Z,21.75
2022-12-31T05:09:54.421Z,22.33
2022-12-31T05:12:56.733Z,23.92
2022-12-31T05:15:59.059Z,34.60
2022-12-31T05:19:01.459Z,32.13
2022-12-31T05:22:22.087Z,28.88
2022-12-31T05:25:24.581Z,27.38
2022-12-31T05:28:27.012Z,25.10
2022-12-31T05:31:29.510Z,31.73
2022-12-31T05:34:31.867Z,22.00
2022-12-31T05:37:34.439Z,23.02
2022-12-31T05:40:36.777Z,27.37
2022-12-31T05:43:39.146Z,40.45
2022-12-31T05:46:41.508Z,34.30
2022-12-31T05:49:44.061Z,32.25
2022-12-31T05:52:47.726Z,37.40
2022-12-31T05:55:50.300Z,21.83
2022-12-31T05:58:52.628Z,23.92
2022-12-31T06:01:55.299Z,23.10
2022-12-31T06:04:57.674Z,22.38
2022-12-31T06:08:00.142Z,26.23
2022-12-31T06:11:02.609Z,22.90
2022-12-31T06:14:05.535Z,23.13
2022-12-31T06:17:07.944Z,24.75
2022-12-31T06:20:13.152Z,25.55
2022-12-31T06:23:15.902Z,20.45
2022-12-31T06:26:18.333Z,20.02
2022-12-31T06:29:20.961Z,21.58
2022-12-31T06:32:23.341Z,30.83
2022-12-31T06:35:25.772Z,24.65
2022-12-31T06:38:30.237Z,16.65
2022-12-31T06:41:32.969Z,21.47
2022-12-31T06:44:35.321Z,18.88
2022-12-31T06:47:37.765Z,18.73
2022-12-31T06:50:40.417Z,19.73
2022-12-31T06:53:43.201Z,19.67
2022-12-31T06:56:45.809Z,20.77
2022-12-31T06:59:48.397Z,19.63
2022-12-31T07:03:16.984Z,19.67
2022-12-31T07:06:37.652Z,21.83
2022-12-31T07:09:53.762Z,22.98
2022-12-31T07:13:07.016Z,23.83
2022-12-31T07:16:27.977Z,21.17
2022-12-31T07:19:57.653Z,24.85
2022-12-31T07:23:00.585Z,23.75
2022-12-31T07:26:11.286Z,24.35
2022-12-31T07:29:37.949Z,25.63
2022-12-31T07:33:24.493Z,27.73
2022-12-31T07:36:55.520Z,28.57
2022-12-31T07:40:24.013Z,26.60
2022-12-31T07:43:56.282Z,25.77
2022-12-31T07:47:03.556Z,26.20
2022-12-31T07:50:06.912Z,26.02
2022-12-31T07:53:10.427Z,24.25
2022-12-31T07:56:13.580Z,26.00
2022-12-31T07:59:46.806Z,29.15
2022-12-31T08:03:19.141Z,28.52
2022-12-31T08:06:36.863Z,20.33
2022-12-31T08:10:12.571Z,23.17
2022-12-31T08:13:18.488Z,23.00
2022-12-31T08:16:21.807Z,25.40
2022-12-31T08:19:30.696Z,30.67
2022-12-31T08:22:59.058Z,28.45
2022-12-31T08:26:36.526Z,23.17
2022-12-31T08:30:00.433Z,22.20
2022-12-31T08:33:14.295Z,32.47
2022-12-31T08:36:23.337Z,27.85
2022-12-31T08:39:51.165Z,28.02
2022-12-31T08:43:30.453Z,25.30
2022-12-31T08:47:03.581Z,24.88
2022-12-31T08:50:07.256Z,20.58
2022-12-31T08:53:10.129Z,16.70
2022-12-31T08:56:34.579Z,18.55
2022-12-31T08:59:47.898Z,18.35
2022-12-31T09:02:50.373Z,18.13
2022-12-31T09:05:58.843Z,18.38
2022-12-31T09:09:27.288Z,18.45
2022-12-31T09:12:32.777Z,20.90
2022-12-31T09:15:47.586Z,14.83
2022-12-31T09:18:50.005Z,22.45
2022-12-31T09:21:52.919Z,20.75
2022-12-31T09:24:55.549Z,15.33
2022-12-31T09:28:09.454Z,18.33
2022-12-31T09:31:18.452Z,14.65
2022-12-31T09:34:40.379Z,15.73
2022-12-31T09:37:49.368Z,16.55
2022-12-31T09:41:14.971Z,16.30
2022-12-31T09:44:35.616Z,86.63
2022-12-31T09:47:43.805Z,46.40
2022-12-31T09:51:30.007Z,17.38
2022-12-31T09:54:54.059Z,16.27
2022-12-31T09:58:07.217Z,18.43
2022-12-31T10:01:34.965Z,17.75
2022-12-31T10:04:58.338Z,23.45
2022-12-31T10:08:45.183Z,17.95
2022-12-31T10:12:02.645Z,16.58
2022-12-31T10:15:23.457Z,17.27
2022-12-31T10:19:12.188Z,17.30
2022-12-31T10:22:41.007Z,15.73
2022-12-31T10:26:01.289Z,16.65
2022-12-31T10:29:24.952Z,19.95
2022-12-31T10:32:43.489Z,24.80
2022-12-31T10:36:21.719Z,18.98
2022-12-31T10:39:50.465Z,20.67
2022-12-31T10:43:01.973Z,21.50
2022-12-31T10:46:33.383Z,17.50
2022-12-31T10:49:44.889Z,18.02
2022-12-31T10:53:11.598Z,17.40
2022-12-31T10:56:13.903Z,16.07
2022-12-31T10:59:57.313Z,16.13
2022-12-31T11:03:47.621Z,16.02
2022-12-31T11:07:23.702Z,19.13
2022-12-31T11:10:32.730Z,20.25
2022-12-31T11:14:12.711Z,16.00
2022-12-31T11:17:41.179Z,16.60
2022-12-31T11:21:09.006Z,16.35
2022-12-31T11:24:33.294Z,20.20
2022-12-31T11:27:59.743Z,18.17
2022-12-31T11:31:39.660Z,17.50
2022-12-31T11:35:07.556Z,16.88
2022-12-31T11:38:38.703Z,18.88
2022-12-31T11:41:54.348Z,17.90
2022-12-31T11:45:37.666Z,16.00
2022-12-31T11:49:02.790Z,18.77
2022-12-31T11:52:49.697Z,18.27
2022-12-31T11:56:46.193Z,16.70
2022-12-31T11:59:49.950Z,16.60
2022-12-31T12:02:59.740Z,18.58
2022-12-31T12:06:02.147Z,18.57
2022-12-31T12:09:14.416Z,18.77
2022-12-31T12:12:17.134Z,15.90
2022-12-31T12:15:35.465Z,16.77
2022-12-31T12:18:47.455Z,20.10
2022-12-31T12:21:51.030Z,19.48
2022-12-31T12:25:16.009Z,19.90
2022-12-31T12:28:18.744Z,20.83
2022-12-31T12:31:23.527Z,21.33
2022-12-31T12:34:37.843Z,20.70
2022-12-31T12:37:40.178Z,20.40
2022-12-31T12:40:59.674Z,20.10
2022-12-31T12:44:07.786Z,20.30
2022-12-31T12:47:16.143Z,21.83
2022-12-31T12:50:25.869Z,17.75
2022-12-31T12:53:55.848Z,21.23
2022-12-31T12:57:28.701Z,21.35
2022-12-31T13:00:57.230Z,22.40
2022-12-31T13:04:34.066Z,24.80
2022-12-31T13:07:43.036Z,24.90
2022-12-31T13:11:15.432Z,21.83
2022-12-31T13:14:41.636Z,20.30
2022-12-31T13:17:47.081Z,23.02
2022-12-31T13:21:49.469Z,21.93
2022-12-31T13:25:00.456Z,23.02
2022-12-31T13:28:06.381Z,22.83
2022-12-31T13:31:20.119Z,24.40
2022-12-31T13:34:28.810Z,22.42
2022-12-31T13:37:39.603Z,23.58
2022-12-31T13:41:25.374Z,22.60
2022-12-31T13:44:42.341Z,21.73
2022-12-31T13:47:50.769Z,24.67
2022-12-31T13:51:02.068Z,23.02
2022-12-31T13:54:10.129Z,22.83
2022-12-31T13:57:26.035Z,22.35
2022-12-31T14:00:53.865Z,20.33
2022-12-31T14:04:07.428Z,24.13
2022-12-31T14:07:22.089Z,20.85
2022-12-31T14:10:31.764Z,22.85
2022-12-31T14:13:45.530Z,23.67
2022-12-31T14:16:59.712Z,22.83
2022-12-31T14:20:23.657Z,22.25
2022-12-31T14:23:58.233Z,22.48
2022-12-31T14:27:05.503Z,23.43
2022-12-31T14:30:31.079Z,22.67
2022-12-31T14:34:15.699Z,22.25
2022-12-31T14:37:36.756Z,23.90
2022-12-31T14:40:54.324Z,22.45
2022-12-31T14:44:05.412Z,23.70
2022-12-31T14:47:09.078Z,22.02
2022-12-31T14:50:23.682Z,22.20
2022-12-31T14:53:28.544Z,22.13
2022-12-31T14:56:33.026Z,22.00
2022-12-31T14:59:40.448Z,25.93
2022-12-31T15:02:49.842Z,30.83
2022-12-31T15:05:56.161Z,34.30
2022-12-31T15:09:23.313Z,31.92
2022-12-31T15:12:44.217Z,34.45
2022-12-31T15:16:10.031Z,32.50
2022-12-31T15:19:18.241Z,33.03
2022-12-31T15:22:43.920Z,32.60
2022-12-31T15:25:49.194Z,34.15
2022-12-31T15:29:03.584Z,34.30
2022-12-31T15:32:16.788Z,32.13
2022-12-31T15:35:21.869Z,37.10
2022-12-31T15:38:34.049Z,40.88
2022-12-31T15:41:46.190Z,49.45
2022-12-31T15:45:02.351Z,40.55
2022-12-31T15:48:50.217Z,45.28
2022-12-31T15:52:04.944Z,46.80
2022-12-31T15:55:08.125Z,33.93
2022-12-31T15:58:20.989Z,29.42
2022-12-31T16:01:28.856Z,30.00
2022-12-31T16:04:39.321Z,38.27
2022-12-31T16:07:42.129Z,42.35
2022-12-31T16:10:44.638Z,40.40
2022-12-31T16:13:51.090Z,45.80
2022-12-31T16:17:02.766Z,45.63
2022-12-31T16:20:26.057Z,47.13
2022-12-31T16:23:28.478Z,43.08
2022-12-31T16:26:50.340Z,41.30
2022-12-31T16:29:59.731Z,39.72
2022-12-31T16:33:05.866Z,36.28
2022-12-31T16:36:19.601Z,40.67
2022-12-31T16:39:33.883Z,33.38
2022-12-31T16:42:44.101Z,38.00
2022-12-31T16:45:46.939Z,50.25
2022-12-31T16:48:55.714Z,48.13
2022-12-31T16:52:28.009Z,57.58
2022-12-31T16:55:32.262Z,56.15
2022-12-31T16:58:40.441Z,36.93
2022-12-31T17:01:43.547Z,46.72
2022-12-31T17:04:56.112Z,44.22
2022-12-31T17:08:19.361Z,37.37
2022-12-31T17:11:28.774Z,33.80
2022-12-31T17:14:31.181Z,34.38
2022-12-31T17:17:38.029Z,35.83
2022-12-31T17:20:40.522Z,35.78
2022-12-31T17:23:49.261Z,40.25
2022-12-31T17:26:52.252Z,40.88
2022-12-31T17:29:54.668Z,36.13
2022-12-31T17:33:13.030Z,32.15
2022-12-31T17:36:22.546Z,31.92
2022-12-31T17:39:26.616Z,27.87
2022-12-31T17:42:39.789Z,24.85
2022-12-31T17:45:44.123Z,36.63
2022-12-31T17:48:51.974Z,27.08
2022-12-31T17:51:54.371Z,25.75
2022-12-31T17:54:56.733Z,27.05
2022-12-31T17:58:04.774Z,28.17
2022-12-31T18:01:08.588Z,29.93
2022-12-31T18:04:15.996Z,46.28
2022-12-31T18:07:18.440Z,46.13
2022-12-31T18:10:24.460Z,44.47
2022-12-31T18:13:27.620Z,32.20
2022-12-31T18:16:30.510Z,30.77
2022-12-31T18:22:55.935Z,34.13
2022-12-31T18:25:58.346Z,33.20
2022-12-31T18:29:13.744Z,30.58
2022-12-31T18:32:27.087Z,47.83
2022-12-31T18:38:52.860Z,58.13
2022-12-31T18:41:55.276Z,62.23
2022-12-31T18:44:57.744Z,65.47
2022-12-31T18:48:00.122Z,53.63
2022-12-31T18:51:02.474Z,56.17
2022-12-31T18:54:05.055Z,55.42
2022-12-31T18:57:07.471Z,72.07
2022-12-31T19:00:11.003Z,77.07
2022-12-31T19:03:21.734Z,60.07
2022-12-31T19:06:24.669Z,52.13
2022-12-31T19:12:50.236Z,50.77
2022-12-31T19:15:53.512Z,43.17
2022-12-31T19:18:55.950Z,41.45
2022-12-31T19:21:58.318Z,58.45
2022-12-31T19:25:00.675Z,63.50
2022-12-31T19:28:04.216Z,56.55
2022-12-31T19:31:06.933Z,52.67
2022-12-31T19:34:09.523Z,64.17
2022-12-31T19:37:15.273Z,62.60
2022-12-31T19:40:29.580Z,68.60
2022-12-31T19:43:32.027Z,65.90
2022-12-31T19:46:34.414Z,61.72
2022-12-31T19:49:36.781Z,66.65
2022-12-31T19:52:39.147Z,60.70
2022-12-31T19:55:42.400Z,49.67
2022-12-31T19:58:45.465Z,54.67
2022-12-31T20:01:47.982Z,49.08
2022-12-31T20:04:50.647Z,50.13
2022-12-31T20:07:53.057Z,53.63
2022-12-31T20:10:58.839Z,47.28
2022-12-31T20:14:01.257Z,48.23
2022-12-31T20:17:03.760Z,47.00
2022-12-31T20:20:06.978Z,47.33
2022-12-31T20:23:09.909Z,42.47
2022-12-31T20:26:12.781Z,41.60
2022-12-31T20:29:15.235Z,49.70
2022-12-31T20:32:17.992Z,50.03
2022-12-31T20:35:20.340Z,50.13
2022-12-31T20:38:22.720Z,40.53
2022-12-31T20:41:26.281Z,40.35
2022-12-31T20:44:28.758Z,41.37
2022-12-31T20:47:31.113Z,39.45
2022-12-31T20:50:33.638Z,42.05
2022-12-31T20:53:36.056Z,45.33
2022-12-31T20:56:40.329Z,65.03
2022-12-31T20:59:42.757Z,64.05
2022-12-31T21:02:50.931Z,57.63
2022-12-31T21:05:56.466Z,56.27
2022-12-31T21:09:00.674Z,57.45
2022-12-31T21:12:21.963Z,58.90
2022-12-31T21:15:24.348Z,51.17
2022-12-31T21:18:26.989Z,51.13
2022-12-31T21:21:29.385Z,43.85
2022-12-31T21:24:31.753Z,43.72
2022-12-31T21:27:35.877Z,39.08
2022-12-31T21:30:41.779Z,40.35
2022-12-31T21:33:45.957Z,39.30
2022-12-31T21:36:48.309Z,41.17
2022-12-31T21:39:50.963Z,43.17
2022-12-31T21:42:53.341Z,42.40
2022-12-31T21:46:07.154Z,39.70
2022-12-31T21:49:09.578Z,42.53
2022-12-31T21:52:28.536Z,41.63
2022-12-31T21:55:49.059Z,44.72
2022-12-31T21:59:16.917Z,43.47
2022-12-31T22:02:38.246Z,36.47
2022-12-31T22:05:58.932Z,38.08
2022-12-31T22:09:01.488Z,36.77
2022-12-31T22:12:04.088Z,37.85
2022-12-31T22:15:14.445Z,38.50
2022-12-31T22:18:18.736Z,43.10
2022-12-31T22:21:23.725Z,47.55
2022-12-31T22:24:26.088Z,36.42
2022-12-31T22:27:30.040Z,26.75
2022-12-31T22:30:33.439Z,26.92
2022-12-31T22:33:36.056Z,31.45
2022-12-31T22:36:38.458Z,39.00
2022-12-31T22:39:43.369Z,54.50
2022-12-31T22:42:47.161Z,48.50
2022-12-31T22:45:49.547Z,48.38
2022-12-31T22:48:53.681Z,59.57
2022-12-31T22:51:59.845Z,50.80
2022-12-31T22:55:05.804Z,46.65
2022-12-31T22:58:08.177Z,48.67
2022-12-31T23:01:22.395Z,49.72
2022-12-31T23:04:25.009Z,73.38
2022-12-31T23:07:27.378Z,72.53
2022-12-31T23:10:48.254Z,79.00
2022-12-31T23:14:10.025Z,53.88
2022-12-31T23:17:36.178Z,61.95
2022-12-31T23:20:57.368Z,91.83
2022-12-31T23:23:59.990Z,65.13
2022-12-31T23:27:02.762Z,55.55
2022-12-31T23:30:05.948Z,74.28
2022-12-31T23:33:14.289Z,58.65
2022-12-31T23:36:16.671Z,54.97
2022-12-31T23:39:19.753Z,53.88
2022-12-31T23:42:22.182Z,52.43
2022-12-31T23:45:29.563Z,54.70
2022-12-31T23:48:35.333Z,55.42
2022-12-31T23:51:37.965Z,64.73
2022-12-31T23:54:40.476Z,67.22
2022-12-31T23:57:43.526Z,69.85
